Time;durP1;ratioP1;P1;durP2;ratioP2;P2;SDS_P1;SDS_P2;PMS_P1;PMS_P2;Temp;Humidity;BMP_temperature;BMP_pressure;BME280_temperature;BME280_humidity;BME280_pressure;Samples;Min_cycle;Max_cycle;Signal;HPM_P1;HPM_P2
2021/12/24 00:01:33;;;;;;;22.87;13.40;;;;;;;;;;5058378;28;20184;-80
2021/12/24 00:04:00;;;;;;;21.97;12.77;;;;;;;;;;5075019;28;20183;-80
2021/12/24 00:06:26;;;;;;;20.93;11.63;;;;;;;;;;5058340;28;20195;-80
2021/12/24 00:08:55;;;;;;;21.87;12.87;;;;;;;;;;5057891;28;20183;-80
2021/12/24 00:11:21;;;;;;;22.10;13.73;;;;;;;;;;5058315;28;20214;-80
2021/12/24 00:13:50;;;;;;;22.33;13.67;;;;;;;;;;5057853;28;20208;-80
2021/12/24 00:18:48;;;;;;;17.53;11.60;;;;;;;;;;5077218;28;20176;-81
2021/12/24 00:35:17;;;;;;;19.93;12.40;;;;;;;;;;5077196;28;20219;-82
2021/12/24 00:37:45;;;;;;;20.43;12.33;;;;;;;;;;5059756;28;20199;-82
2021/12/24 00:40:17;;;;;;;19.70;11.97;;;;;;;;;;5058323;28;20192;-81
2021/12/24 00:42:45;;;;;;;20.83;12.63;;;;;;;;;;5075192;28;20173;-82
2021/12/24 00:45:12;;;;;;;20.97;12.70;;;;;;;;;;5074962;28;20192;-82
2021/12/24 00:47:38;;;;;;;18.77;11.73;;;;;;;;;;5075388;28;20169;-82
2021/12/24 00:50:08;;;;;;;17.60;11.73;;;;;;;;;;5076049;28;20176;-81
2021/12/24 00:52:56;;;;;;;18.90;10.80;;;;;;;;;;5074186;28;20267;-82
2021/12/24 00:55:24;;;;;;;19.43;11.80;;;;;;;;;;5074965;28;20292;-82
2021/12/24 00:57:55;;;;;;;17.13;11.27;;;;;;;;;;5074764;28;20230;-82
2021/12/24 01:00:22;;;;;;;18.90;11.43;;;;;;;;;;5074236;28;20219;-81
2021/12/24 01:02:49;;;;;;;17.67;11.90;;;;;;;;;;5074855;28;20185;-82
2021/12/24 01:05:16;;;;;;;16.37;11.30;;;;;;;;;;5058291;28;20570;-82
2021/12/24 01:07:44;;;;;;;17.23;11.33;;;;;;;;;;5058579;28;20591;-82
2021/12/24 01:10:11;;;;;;;20.73;12.37;;;;;;;;;;5073576;28;20169;-81
2021/12/24 01:12:37;;;;;;;18.70;11.93;;;;;;;;;;5074461;28;20177;-81
2021/12/24 01:15:04;;;;;;;19.40;12.27;;;;;;;;;;5074372;28;20204;-82
2021/12/24 01:17:37;;;;;;;20.63;12.97;;;;;;;;;;5074437;28;20177;-82
2021/12/24 01:20:17;;;;;;;21.53;13.30;;;;;;;;;;5058401;28;20233;-82
2021/12/24 01:25:21;;;;;;;19.77;12.33;;;;;;;;;;5075915;28;20201;-82
2021/12/24 01:28:30;;;;;;;20.80;14.13;;;;;;;;;;5074218;28;20181;-81
2021/12/24 01:39:10;;;;;;;22.77;13.50;;;;;;;;;;5075795;28;20171;-82
2021/12/24 01:44:27;;;;;;;21.67;14.03;;;;;;;;;;5074415;28;20246;-82
2021/12/24 01:46:54;;;;;;;23.73;13.53;;;;;;;;;;5058186;28;20197;-82
2021/12/24 01:49:20;;;;;;;21.17;13.60;;;;;;;;;;5073886;28;20201;-82
2021/12/24 01:51:46;;;;;;;21.40;13.30;;;;;;;;;;5073753;28;20219;-82
2021/12/24 01:54:12;;;;;;;22.63;13.27;;;;;;;;;;5073297;28;20354;-81
2021/12/24 01:56:38;;;;;;;18.07;12.37;;;;;;;;;;5056594;28;20200;-81
2021/12/24 01:59:04;;;;;;;20.77;13.07;;;;;;;;;;5073095;28;20264;-82
2021/12/24 02:01:30;;;;;;;18.47;12.13;;;;;;;;;;5072765;28;20176;-82
2021/12/24 02:03:56;;;;;;;19.63;11.67;;;;;;;;;;5056455;28;20180;-82
2021/12/24 02:06:22;;;;;;;16.60;11.80;;;;;;;;;;5056497;28;20200;-82
2021/12/24 02:08:48;;;;;;;15.97;10.37;;;;;;;;;;5073162;28;20631;-82
2021/12/24 02:11:15;;;;;;;14.90;10.57;;;;;;;;;;5055661;28;20234;-82
2021/12/24 02:13:41;;;;;;;16.10;10.93;;;;;;;;;;5073611;28;20169;-82
2021/12/24 02:28:17;;;;;;;17.10;11.00;;;;;;;;;;5073521;28;20176;-81
2021/12/24 02:29:49;;;;;;;15.37;10.13;;;;;;;;;;5073499;28;20192;-82
2021/12/24 02:32:15;;;;;;;14.90;10.00;;;;;;;;;;5071856;28;20177;-82
2021/12/24 02:34:41;;;;;;;14.20;10.00;;;;;;;;;;5055203;28;20685;-82
2021/12/24 02:37:07;;;;;;;14.77;10.50;;;;;;;;;;5055129;28;20203;-82
2021/12/24 02:39:33;;;;;;;16.00;10.63;;;;;;;;;;5055164;28;20177;-82
2021/12/24 02:42:10;;;;;;;14.80;10.63;;;;;;;;;;5071801;28;20178;-82
2021/12/24 02:44:36;;;;;;;18.37;11.70;;;;;;;;;;5071586;28;20191;-81
2021/12/24 02:55:10;;;;;;;20.07;11.90;;;;;;;;;;5071917;28;20211;-82
2021/12/24 02:57:38;;;;;;;20.90;13.30;;;;;;;;;;5055368;28;20202;-82
2021/12/24 03:00:19;;;;;;;17.37;11.33;;;;;;;;;;5071441;28;20627;-82
2021/12/24 03:02:46;;;;;;;19.80;13.30;;;;;;;;;;5055587;28;20564;-82
2021/12/24 03:05:13;;;;;;;19.43;13.03;;;;;;;;;;5054896;28;20212;-82
2021/12/24 03:07:39;;;;;;;20.47;13.43;;;;;;;;;;5054837;28;20205;-82
2021/12/24 03:10:11;;;;;;;21.70;13.43;;;;;;;;;;5054879;28;20181;-82
2021/12/24 03:12:38;;;;;;;18.00;12.27;;;;;;;;;;5055198;28;20177;-81
2021/12/24 03:15:05;;;;;;;16.87;10.90;;;;;;;;;;5071021;28;20212;-82
2021/12/24 03:17:32;;;;;;;22.17;14.23;;;;;;;;;;5054609;28;20181;-82
2021/12/24 03:20:04;;;;;;;19.50;13.03;;;;;;;;;;5071261;28;20177;-81
2021/12/24 03:23:04;;;;;;;22.33;13.37;;;;;;;;;;5071011;28;20185;-81
2021/12/24 03:25:19;;;;;;;22.20;13.53;;;;;;;;;;5069673;28;20674;-82
2021/12/24 03:27:45;;;;;;;18.70;12.97;;;;;;;;;;5054721;28;20197;-81
2021/12/24 03:30:11;;;;;;;21.70;14.13;;;;;;;;;;5054623;28;20205;-81
2021/12/24 03:32:38;;;;;;;22.10;13.90;;;;;;;;;;5070151;28;20177;-81
2021/12/24 03:35:04;;;;;;;20.20;13.23;;;;;;;;;;5070974;28;20230;-82
2021/12/24 03:37:30;;;;;;;20.50;14.50;;;;;;;;;;5054286;28;20184;-81
2021/12/24 03:39:57;;;;;;;20.57;13.03;;;;;;;;;;5070980;28;20176;-82
2021/12/24 03:42:23;;;;;;;21.97;13.90;;;;;;;;;;5070726;28;20176;-82
2021/12/24 03:45:06;;;;;;;23.60;13.73;;;;;;;;;;5070957;28;20754;-82
2021/12/24 03:47:37;;;;;;;22.03;14.03;;;;;;;;;;5070813;28;20173;-81
2021/12/24 03:50:08;;;;;;;19.13;12.77;;;;;;;;;;5054922;28;20553;-81
2021/12/24 03:53:01;;;;;;;20.47;13.90;;;;;;;;;;5070547;28;20277;-82
2021/12/24 03:55:24;;;;;;;19.53;13.43;;;;;;;;;;5071996;28;20678;-82
2021/12/24 03:57:50;;;;;;;20.40;13.83;;;;;;;;;;5070882;28;20169;-81
2021/12/24 04:00:21;;;;;;;22.40;14.00;;;;;;;;;;5054225;28;20188;-82
2021/12/24 04:02:47;;;;;;;21.60;14.03;;;;;;;;;;5070678;28;20203;-82
2021/12/24 04:05:14;;;;;;;21.73;13.60;;;;;;;;;;5070796;28;20284;-81
2021/12/24 04:07:40;;;;;;;19.40;13.33;;;;;;;;;;5054050;28;20210;-81
2021/12/24 04:10:18;;;;;;;20.53;13.23;;;;;;;;;;5070602;28;20216;-82
2021/12/24 04:12:44;;;;;;;22.13;13.50;;;;;;;;;;5070521;28;20187;-83
2021/12/24 04:15:10;;;;;;;20.23;13.27;;;;;;;;;;5070103;28;20686;-82
2021/12/24 04:17:39;;;;;;;18.83;13.00;;;;;;;;;;5054174;28;20209;-82
2021/12/24 04:25:27;;;;;;;17.93;12.63;;;;;;;;;;5070916;28;20717;-82
2021/12/24 04:27:56;;;;;;;19.87;13.00;;;;;;;;;;5070549;28;20188;-83
2021/12/24 04:30:27;;;;;;;17.63;12.43;;;;;;;;;;5054288;28;20190;-81
2021/12/24 04:51:25;;;;;;;18.03;12.30;;;;;;;;;;5074954;28;20187;-82
2021/12/24 05:02:16;;;;;;;16.50;12.00;;;;;;;;;;5075491;28;20207;-81
2021/12/24 05:05:00;;;;;;;16.97;11.40;;;;;;;;;;5073587;28;20217;-82
2021/12/24 05:09:52;;;;;;;16.33;11.20;;;;;;;;;;5074974;28;20231;-82
2021/12/24 05:12:18;;;;;;;15.87;10.67;;;;;;;;;;5058223;28;20192;-82
2021/12/24 05:14:44;;;;;;;17.27;11.80;;;;;;;;;;5058585;28;20215;-82
2021/12/24 05:17:30;;;;;;;18.10;11.43;;;;;;;;;;5057829;28;20678;-82
2021/12/24 05:22:41;;;;;;;16.40;11.70;;;;;;;;;;5075128;28;20173;-82
2021/12/24 05:25:07;;;;;;;15.23;10.70;;;;;;;;;;5074608;28;20205;-82
2021/12/24 05:27:35;;;;;;;16.17;10.80;;;;;;;;;;5074535;28;20173;-82
2021/12/24 05:30:01;;;;;;;15.70;10.77;;;;;;;;;;5074475;28;20173;-82
2021/12/24 05:32:27;;;;;;;14.77;9.97;;;;;;;;;;5057820;28;20188;-82
2021/12/24 05:34:53;;;;;;;15.03;10.53;;;;;;;;;;5057569;28;20239;-82
2021/12/24 05:37:19;;;;;;;15.97;10.40;;;;;;;;;;5074317;28;20220;-82
2021/12/24 05:39:45;;;;;;;14.07;9.80;;;;;;;;;;5057627;28;20315;-82
2021/12/24 05:42:11;;;;;;;15.60;10.40;;;;;;;;;;5057837;28;20241;-82
2021/12/24 05:44:37;;;;;;;14.67;9.80;;;;;;;;;;5057061;28;20182;-81
2021/12/24 05:47:03;;;;;;;14.07;9.90;;;;;;;;;;5057259;28;20201;-81
2021/12/24 05:49:29;;;;;;;14.77;9.70;;;;;;;;;;5073651;28;20265;-81
2021/12/24 05:51:55;;;;;;;15.33;9.30;;;;;;;;;;5073306;28;20181;-81
2021/12/24 05:54:22;;;;;;;13.90;9.67;;;;;;;;;;5073964;28;20204;-82
2021/12/24 05:56:48;;;;;;;15.73;9.47;;;;;;;;;;5055980;28;20292;-83
2021/12/24 05:59:14;;;;;;;15.67;9.07;;;;;;;;;;5056344;28;20208;-80
2021/12/24 06:01:40;;;;;;;12.80;9.33;;;;;;;;;;5056034;28;20176;-80
2021/12/24 06:04:06;;;;;;;12.23;8.73;;;;;;;;;;5072453;28;20219;-80
2021/12/24 06:06:32;;;;;;;12.50;9.37;;;;;;;;;;5072603;28;20410;-80
2021/12/24 06:08:58;;;;;;;12.53;8.47;;;;;;;;;;5072647;28;20175;-80
2021/12/24 06:11:24;;;;;;;13.00;8.60;;;;;;;;;;5072235;28;20176;-80
2021/12/24 06:13:54;;;;;;;11.03;8.40;;;;;;;;;;5072233;28;20715;-80
2021/12/24 06:16:20;;;;;;;11.33;8.13;;;;;;;;;;5057374;28;20225;-81
2021/12/24 06:18:46;;;;;;;9.67;7.17;;;;;;;;;;5074542;28;20174;-81
2021/12/24 06:21:12;;;;;;;10.60;8.03;;;;;;;;;;5055911;28;20650;-81
2021/12/24 06:23:39;;;;;;;11.63;7.73;;;;;;;;;;5073308;28;20184;-81
2021/12/24 06:40:22;;;;;;;9.20;6.67;;;;;;;;;;5239054;22;20789;-80
2021/12/24 06:48:56;;;;;;;;;;;;;;;;;;;;;
2021/12/24 06:58:14;;;;;;;6.83;5.23;;;;;;;;;;4991605;28;20183;-79
2021/12/24 07:01:06;;;;;;;9.43;5.90;;;;;;;;;;5014300;28;20218;-78
2021/12/24 07:03:51;;;;;;;7.07;5.80;;;;;;;;;;5000198;28;20191;-77
2021/12/24 07:06:30;;;;;;;;;;;;;;;;;;;;;
2021/12/24 07:15:03;;;;;;;7.10;5.33;;;;;;;;;;5072474;28;20297;-78
2021/12/24 07:17:29;;;;;;;8.50;5.70;;;;;;;;;;5071160;28;20215;-79
2021/12/24 07:19:55;;;;;;;8.27;5.37;;;;;;;;;;5071091;28;20211;-78
2021/12/24 07:22:21;;;;;;;8.30;4.90;;;;;;;;;;5070795;28;20664;-77
2021/12/24 07:24:47;;;;;;;7.80;5.30;;;;;;;;;;5071086;28;20178;-78
2021/12/24 07:27:14;;;;;;;9.70;5.50;;;;;;;;;;5071030;28;20304;-78
2021/12/24 07:29:40;;;;;;;7.80;5.17;;;;;;;;;;5071177;28;20187;-78
2021/12/24 07:32:06;;;;;;;7.83;5.37;;;;;;;;;;5070807;28;20179;-78
2021/12/24 07:34:32;;;;;;;9.20;5.50;;;;;;;;;;5054479;28;20275;-77
2021/12/24 07:36:58;;;;;;;8.83;6.03;;;;;;;;;;5070885;28;20696;-77
2021/12/24 07:39:24;;;;;;;7.57;5.57;;;;;;;;;;5070879;28;20363;-78
2021/12/24 07:41:51;;;;;;;9.67;5.40;;;;;;;;;;5071937;28;20173;-78
2021/12/24 07:44:18;;;;;;;7.87;5.27;;;;;;;;;;5070988;28;20200;-78
2021/12/24 07:46:52;;;;;;;8.37;5.00;;;;;;;;;;5070748;28;20202;-78
2021/12/24 07:54:22;;;;;;;7.77;5.13;;;;;;;;;;5072181;28;20175;-77
2021/12/24 07:56:48;;;;;;;5.93;4.57;;;;;;;;;;5070823;28;20245;-78
2021/12/24 07:59:15;;;;;;;8.10;5.40;;;;;;;;;;5054199;28;20181;-77
2021/12/24 08:01:43;;;;;;;8.50;5.57;;;;;;;;;;5070440;28;20259;-78
2021/12/24 08:04:09;;;;;;;7.77;5.93;;;;;;;;;;5054010;28;20176;-78
2021/12/24 08:06:35;;;;;;;9.43;5.93;;;;;;;;;;5070451;28;20230;-77
2021/12/24 08:09:01;;;;;;;9.27;6.20;;;;;;;;;;5071735;28;20311;-77
2021/12/24 08:11:27;;;;;;;7.07;5.43;;;;;;;;;;5054196;28;20662;-78
2021/12/24 08:13:53;;;;;;;7.93;6.30;;;;;;;;;;5054636;28;20178;-78
2021/12/24 08:16:20;;;;;;;7.43;5.90;;;;;;;;;;5054674;28;20214;-78
2021/12/24 08:18:46;;;;;;;7.93;5.27;;;;;;;;;;5055052;28;20179;-80
2021/12/24 08:21:13;;;;;;;8.00;5.70;;;;;;;;;;5058309;28;20185;-79
2021/12/24 08:23:39;;;;;;;8.57;5.80;;;;;;;;;;5074921;28;20179;-79
2021/12/24 08:26:05;;;;;;;7.10;5.33;;;;;;;;;;5058650;28;20607;-78
2021/12/24 08:28:31;;;;;;;8.30;6.00;;;;;;;;;;5058734;28;20215;-79
2021/12/24 08:30:57;;;;;;;8.87;5.87;;;;;;;;;;5057810;28;20223;-79
2021/12/24 08:33:23;;;;;;;7.50;5.73;;;;;;;;;;5074551;28;20170;-78
2021/12/24 08:35:49;;;;;;;9.73;6.40;;;;;;;;;;5057994;28;20194;-79
2021/12/24 08:38:15;;;;;;;9.13;6.23;;;;;;;;;;5075518;28;20180;-79
2021/12/24 08:40:41;;;;;;;8.43;6.20;;;;;;;;;;5057651;28;20674;-78
2021/12/24 08:43:07;;;;;;;8.53;6.03;;;;;;;;;;5058028;28;20181;-79
2021/12/24 08:45:33;;;;;;;8.03;5.93;;;;;;;;;;5074540;28;20214;-78
2021/12/24 08:47:59;;;;;;;8.60;6.13;;;;;;;;;;5058074;28;20179;-78
2021/12/24 08:50:25;;;;;;;8.07;5.73;;;;;;;;;;5057556;28;20219;-79
2021/12/24 08:52:51;;;;;;;7.47;5.80;;;;;;;;;;5057767;28;20535;-78
2021/12/24 08:55:17;;;;;;;9.00;5.57;;;;;;;;;;5073977;28;20206;-79
2021/12/24 08:57:44;;;;;;;7.87;5.70;;;;;;;;;;5057785;28;20184;-78
2021/12/24 09:00:11;;;;;;;8.53;5.80;;;;;;;;;;5074206;28;20206;-79
2021/12/24 09:02:38;;;;;;;9.47;6.20;;;;;;;;;;5057428;28;20220;-78
2021/12/24 09:05:05;;;;;;;7.93;5.80;;;;;;;;;;5075206;28;20205;-79
2021/12/24 09:07:31;;;;;;;9.87;5.70;;;;;;;;;;5057160;28;20223;-78
2021/12/24 09:09:57;;;;;;;8.43;6.53;;;;;;;;;;5074007;28;20179;-78
2021/12/24 09:12:23;;;;;;;11.53;6.13;;;;;;;;;;5057027;28;20203;-78
2021/12/24 09:14:50;;;;;;;8.93;6.53;;;;;;;;;;5057471;28;20222;-79
2021/12/24 09:17:16;;;;;;;7.80;5.50;;;;;;;;;;5057468;28;20558;-81
2021/12/24 09:19:45;;;;;;;9.50;5.70;;;;;;;;;;5057140;28;20238;-79
2021/12/24 09:22:16;;;;;;;7.63;6.00;;;;;;;;;;5057279;28;20182;-79
2021/12/24 09:24:43;;;;;;;7.50;5.60;;;;;;;;;;5073755;28;20203;-79
2021/12/24 09:27:09;;;;;;;8.30;5.57;;;;;;;;;;5073523;28;20194;-80
2021/12/24 09:29:35;;;;;;;8.60;6.30;;;;;;;;;;5073599;28;20174;-79
2021/12/24 09:32:01;;;;;;;8.70;5.97;;;;;;;;;;5072443;28;20178;-79
2021/12/24 09:34:27;;;;;;;6.63;5.60;;;;;;;;;;5057292;28;20205;-79
2021/12/24 09:36:53;;;;;;;6.67;5.47;;;;;;;;;;5057085;28;20200;-79
2021/12/24 09:39:20;;;;;;;9.20;5.80;;;;;;;;;;5057013;28;20181;-79
2021/12/24 09:41:46;;;;;;;7.57;5.47;;;;;;;;;;5056474;28;20178;-79
2021/12/24 09:44:13;;;;;;;8.60;5.63;;;;;;;;;;5073021;28;20175;-79
2021/12/24 09:46:42;;;;;;;9.07;6.00;;;;;;;;;;5073560;28;20256;-79
2021/12/24 09:49:09;;;;;;;8.40;5.73;;;;;;;;;;5057060;28;20177;-80
2021/12/24 09:51:38;;;;;;;7.17;5.50;;;;;;;;;;5073041;28;20171;-79
2021/12/24 09:54:09;;;;;;;8.33;5.53;;;;;;;;;;5072988;28;20186;-79
2021/12/24 09:56:35;;;;;;;8.10;4.70;;;;;;;;;;5072842;28;20222;-79
2021/12/24 09:59:01;;;;;;;9.10;5.20;;;;;;;;;;5056362;28;20183;-79
2021/12/24 10:01:28;;;;;;;8.30;5.60;;;;;;;;;;5072963;28;20175;-80
2021/12/24 10:04:02;;;;;;;8.90;5.53;;;;;;;;;;5056256;28;20192;-79
2021/12/24 10:06:28;;;;;;;6.93;5.17;;;;;;;;;;5072712;28;20225;-80
2021/12/24 10:09:01;;;;;;;9.60;5.67;;;;;;;;;;5056131;28;20180;-79
2021/12/24 10:11:30;;;;;;;7.40;5.07;;;;;;;;;;5055667;28;20273;-80
2021/12/24 10:14:03;;;;;;;6.77;5.17;;;;;;;;;;5056618;28;20637;-79
2021/12/24 10:16:29;;;;;;;8.40;5.40;;;;;;;;;;5072629;28;20683;-79
2021/12/24 10:18:56;;;;;;;6.87;5.00;;;;;;;;;;5055929;28;20179;-79
2021/12/24 10:21:26;;;;;;;9.77;5.30;;;;;;;;;;5055865;28;20302;-79
2021/12/24 10:24:00;;;;;;;8.83;5.80;;;;;;;;;;5072222;28;20185;-80
2021/12/24 10:26:30;;;;;;;9.07;5.53;;;;;;;;;;5072237;28;20221;-79
2021/12/24 10:29:01;;;;;;;8.70;6.03;;;;;;;;;;5072167;28;20266;-80
2021/12/24 10:31:32;;;;;;;9.13;5.90;;;;;;;;;;5072213;28;20204;-79
2021/12/24 10:34:12;;;;;;;9.53;5.80;;;;;;;;;;5072445;28;20306;-79
2021/12/24 10:37:00;;;;;;;8.60;6.17;;;;;;;;;;5055630;28;20209;-79
2021/12/24 10:39:28;;;;;;;7.03;5.33;;;;;;;;;;5072149;28;20175;-80
2021/12/24 10:41:56;;;;;;;9.77;5.50;;;;;;;;;;5055084;28;20176;-79
2021/12/24 10:44:27;;;;;;;10.90;6.03;;;;;;;;;;5072189;28;20173;-79
2021/12/24 10:46:56;;;;;;;9.33;6.00;;;;;;;;;;5055397;28;20199;-79
2021/12/24 10:49:36;;;;;;;9.03;6.07;;;;;;;;;;5072201;28;20181;-79
2021/12/24 10:54:51;;;;;;;9.30;6.17;;;;;;;;;;5072478;28;20165;-78
2021/12/24 10:57:18;;;;;;;10.53;6.53;;;;;;;;;;5071625;28;20209;-78
2021/12/24 10:59:48;;;;;;;9.57;5.50;;;;;;;;;;5055443;28;20181;-79
2021/12/24 11:02:14;;;;;;;7.40;5.37;;;;;;;;;;5055056;28;20273;-79
2021/12/24 11:04:40;;;;;;;8.50;5.07;;;;;;;;;;5055218;28;20240;-78
2021/12/24 11:07:29;;;;;;;7.17;5.23;;;;;;;;;;5054759;28;20291;-78
2021/12/24 11:10:11;;;;;;;8.93;5.37;;;;;;;;;;5059243;28;20686;-77
2021/12/24 11:12:38;;;;;;;22.40;11.07;;;;;;;;;;5071810;28;20228;-77
2021/12/24 11:15:20;;;;;;;13.63;8.07;;;;;;;;;;5055002;28;20237;-78
2021/12/24 11:17:46;;;;;;;10.93;7.93;;;;;;;;;;5071584;28;20182;-79
2021/12/24 11:20:12;;;;;;;8.43;5.63;;;;;;;;;;5055017;28;20186;-79
2021/12/24 11:22:53;;;;;;;9.17;5.80;;;;;;;;;;5073035;28;20194;-79
2021/12/24 11:25:20;;;;;;;9.00;6.13;;;;;;;;;;5071001;28;20220;-77
2021/12/24 11:27:46;;;;;;;8.77;5.87;;;;;;;;;;5054690;28;20207;-77
2021/12/24 11:30:12;;;;;;;8.53;5.67;;;;;;;;;;5071131;28;20184;-78
2021/12/24 11:32:39;;;;;;;9.27;6.30;;;;;;;;;;5070623;28;20180;-79
2021/12/24 11:35:05;;;;;;;13.13;6.73;;;;;;;;;;5070960;28;20755;-79
2021/12/24 11:37:31;;;;;;;9.70;6.07;;;;;;;;;;5071348;28;20229;-77
2021/12/24 11:40:00;;;;;;;8.37;5.57;;;;;;;;;;5071032;28;20550;-79
2021/12/24 11:42:30;;;;;;;9.53;6.20;;;;;;;;;;5054105;28;20188;-78
2021/12/24 11:44:57;;;;;;;8.77;6.03;;;;;;;;;;5070719;28;20240;-79
2021/12/24 11:47:23;;;;;;;8.80;5.73;;;;;;;;;;5070659;28;20178;-79
2021/12/24 11:49:49;;;;;;;8.73;5.03;;;;;;;;;;5054361;28;20244;-78
2021/12/24 11:52:16;;;;;;;8.93;5.47;;;;;;;;;;5070419;28;20174;-79
2021/12/24 11:54:42;;;;;;;10.67;6.53;;;;;;;;;;5074039;28;20166;-79
2021/12/24 11:57:22;;;;;;;8.50;5.43;;;;;;;;;;5058352;28;20728;-79
2021/12/24 11:59:49;;;;;;;11.93;6.13;;;;;;;;;;5075119;28;20660;-78
2021/12/24 12:02:34;;;;;;;8.87;5.97;;;;;;;;;;5074858;28;20265;-81
2021/12/24 12:05:12;;;;;;;8.10;5.60;;;;;;;;;;5074876;28;20290;-79
2021/12/24 12:07:38;;;;;;;7.07;5.10;;;;;;;;;;5074684;28;20195;-79
2021/12/24 12:10:05;;;;;;;7.57;5.67;;;;;;;;;;5075833;28;20199;-79
2021/12/24 12:12:34;;;;;;;8.50;5.00;;;;;;;;;;5074333;28;20658;-79
2021/12/24 12:15:19;;;;;;;8.27;4.97;;;;;;;;;;5074727;28;20236;-79
2021/12/24 12:17:53;;;;;;;8.13;5.10;;;;;;;;;;5074518;28;20191;-79
2021/12/24 12:20:48;;;;;;;7.23;4.60;;;;;;;;;;5058414;28;20212;-81
2021/12/24 12:23:44;;;;;;;6.53;4.20;;;;;;;;;;5061223;28;20603;-80
2021/12/24 12:26:29;;;;;;;7.43;3.70;;;;;;;;;;5075592;28;20212;-80
2021/12/24 12:29:13;;;;;;;5.93;4.27;;;;;;;;;;5075068;28;20535;-80
2021/12/24 12:31:39;;;;;;;7.77;3.43;;;;;;;;;;5074937;28;20171;-80
2021/12/24 12:34:25;;;;;;;9.57;3.83;;;;;;;;;;5075121;28;20674;-81
2021/12/24 12:36:51;;;;;;;5.80;3.47;;;;;;;;;;5075026;28;20204;-80
2021/12/24 12:39:26;;;;;;;6.90;3.77;;;;;;;;;;5058587;28;20188;-80
2021/12/24 12:41:52;;;;;;;5.70;3.70;;;;;;;;;;5075199;28;20551;-80
2021/12/24 12:44:19;;;;;;;5.47;3.33;;;;;;;;;;5075017;28;20225;-82
2021/12/24 12:46:47;;;;;;;6.67;3.30;;;;;;;;;;5074524;28;20620;-79
2021/12/24 12:49:16;;;;;;;7.57;3.43;;;;;;;;;;5058821;28;20184;-80
2021/12/24 12:51:57;;;;;;;5.80;3.33;;;;;;;;;;5074462;28;20560;-80
2021/12/24 12:54:30;;;;;;;6.07;3.20;;;;;;;;;;5074820;28;20333;-80
2021/12/24 12:57:10;;;;;;;6.80;3.20;;;;;;;;;;5058156;28;20202;-81
2021/12/24 12:59:36;;;;;;;6.23;3.07;;;;;;;;;;5058386;28;20186;-80
2021/12/24 13:02:02;;;;;;;6.40;3.40;;;;;;;;;;5074213;28;20271;-80
2021/12/24 13:04:28;;;;;;;4.23;3.07;;;;;;;;;;5074090;28;20684;-80
2021/12/24 13:06:56;;;;;;;4.10;2.83;;;;;;;;;;5094544;23;20578;-83
2021/12/24 13:09:23;;;;;;;4.57;3.17;;;;;;;;;;5093894;28;20168;-81
2021/12/24 13:11:51;;;;;;;6.43;3.23;;;;;;;;;;5094546;28;20262;-81
2021/12/24 13:14:18;;;;;;;4.30;2.97;;;;;;;;;;5094053;28;20172;-80
2021/12/24 13:17:15;;;;;;;7.20;3.20;;;;;;;;;;5093872;28;20192;-82
2021/12/24 13:22:32;;;;;;;6.70;3.40;;;;;;;;;;5093785;28;20187;-82
2021/12/24 13:25:13;;;;;;;7.63;4.33;;;;;;;;;;5093341;28;20202;-83
2021/12/24 13:27:48;;;;;;;9.33;4.83;;;;;;;;;;5094927;28;20246;-83
2021/12/24 13:30:25;;;;;;;7.97;4.00;;;;;;;;;;5093608;28;20221;-82
2021/12/24 13:33:01;;;;;;;6.70;3.37;;;;;;;;;;5076618;28;20175;-84
2021/12/24 13:35:29;;;;;;;7.33;3.70;;;;;;;;;;5093150;28;20234;-82
2021/12/24 13:37:55;;;;;;;9.20;3.80;;;;;;;;;;5093157;28;20232;-82
2021/12/24 13:40:24;;;;;;;6.27;2.83;;;;;;;;;;5093082;28;20705;-84
2021/12/24 13:42:51;;;;;;;6.53;2.80;;;;;;;;;;5093133;28;20630;-83
2021/12/24 13:45:17;;;;;;;5.00;2.83;;;;;;;;;;5076329;28;20686;-83
2021/12/24 13:55:35;;;;;;;10.40;4.23;;;;;;;;;;5093501;28;20634;-82
2021/12/24 13:58:15;;;;;;;7.13;4.07;;;;;;;;;;5076277;28;20237;-82
2021/12/24 14:00:47;;;;;;;7.33;5.13;;;;;;;;;;5092571;28;20270;-83
2021/12/24 14:03:14;;;;;;;8.60;4.73;;;;;;;;;;5093080;28;20188;-82
2021/12/24 14:05:47;;;;;;;10.63;6.03;;;;;;;;;;5092570;28;20226;-82
2021/12/24 14:08:17;;;;;;;7.57;4.77;;;;;;;;;;5075987;28;20173;-83
2021/12/24 14:10:44;;;;;;;8.53;5.10;;;;;;;;;;5092374;28;20183;-82
2021/12/24 14:13:19;;;;;;;8.10;5.10;;;;;;;;;;5075784;28;20187;-80
2021/12/24 14:23:30;;;;;;;8.70;5.37;;;;;;;;;;5093410;28;20258;-83
2021/12/24 14:25:57;;;;;;;9.60;6.10;;;;;;;;;;5075564;28;20661;-83
2021/12/24 14:28:24;;;;;;;7.50;5.03;;;;;;;;;;5075700;28;20182;-83
2021/12/24 14:30:58;;;;;;;8.63;6.17;;;;;;;;;;5075438;28;20663;-83
2021/12/24 14:33:24;;;;;;;9.27;5.27;;;;;;;;;;5092192;28;20185;-83
2021/12/24 14:35:52;;;;;;;9.30;5.77;;;;;;;;;;5075241;28;20200;-83
2021/12/24 14:38:18;;;;;;;7.43;5.37;;;;;;;;;;5075838;28;20276;-82
2021/12/24 14:40:46;;;;;;;9.43;5.23;;;;;;;;;;5075264;28;20207;-83
2021/12/24 14:43:16;;;;;;;9.90;6.07;;;;;;;;;;5092017;28;20209;-83
2021/12/24 14:45:44;;;;;;;10.90;6.33;;;;;;;;;;5091945;28;20263;-83
2021/12/24 14:48:16;;;;;;;10.50;5.27;;;;;;;;;;5091995;28;20168;-83
2021/12/24 14:50:42;;;;;;;8.13;5.10;;;;;;;;;;5074826;28;20232;-82
2021/12/24 14:53:13;;;;;;;6.67;4.63;;;;;;;;;;5091922;28;20176;-82
2021/12/24 14:55:41;;;;;;;5.67;3.63;;;;;;;;;;5091895;28;20227;-83
2021/12/24 14:58:07;;;;;;;8.50;3.97;;;;;;;;;;5091887;28;20662;-82
2021/12/24 15:00:36;;;;;;;5.37;3.10;;;;;;;;;;5091530;28;20270;-82
2021/12/24 15:03:10;;;;;;;8.97;4.20;;;;;;;;;;5091799;28;20186;-82
2021/12/24 15:05:37;;;;;;;6.97;3.97;;;;;;;;;;5074872;28;20269;-82
2021/12/24 15:08:12;;;;;;;6.53;3.20;;;;;;;;;;5091717;28;20178;-83
2021/12/24 15:10:38;;;;;;;5.43;3.93;;;;;;;;;;5091625;28;20237;-83
2021/12/24 15:13:14;;;;;;;7.37;3.70;;;;;;;;;;5074907;28;20599;-81
2021/12/24 15:15:40;;;;;;;6.63;3.23;;;;;;;;;;5091396;28;20230;-82
2021/12/24 15:18:06;;;;;;;7.03;4.37;;;;;;;;;;5091511;28;20179;-82
2021/12/24 15:20:33;;;;;;;7.43;4.93;;;;;;;;;;5074668;28;20194;-83
2021/12/24 15:23:00;;;;;;;6.10;4.60;;;;;;;;;;5074995;28;20190;-84
2021/12/24 15:25:26;;;;;;;7.00;3.83;;;;;;;;;;5074427;28;20223;-85
2021/12/24 15:27:54;;;;;;;7.37;3.87;;;;;;;;;;5074602;28;20188;-85
2021/12/24 15:30:20;;;;;;;6.80;3.70;;;;;;;;;;5091063;28;20307;-82
2021/12/24 15:32:46;;;;;;;6.17;3.80;;;;;;;;;;5092131;28;20176;-81
2021/12/24 15:35:13;;;;;;;5.67;3.30;;;;;;;;;;5091778;28;20764;-79
2021/12/24 15:37:39;;;;;;;8.73;3.97;;;;;;;;;;5091476;28;20179;-80
2021/12/24 15:40:05;;;;;;;5.50;3.97;;;;;;;;;;5075048;28;20183;-81
2021/12/24 15:42:31;;;;;;;4.77;3.13;;;;;;;;;;5091035;28;20262;-80
2021/12/24 15:44:57;;;;;;;7.90;3.80;;;;;;;;;;5074730;28;20221;-80
2021/12/24 15:47:23;;;;;;;7.00;4.17;;;;;;;;;;5074493;28;20195;-80
2021/12/24 15:49:49;;;;;;;9.23;4.57;;;;;;;;;;5074629;28;20189;-80
2021/12/24 15:52:15;;;;;;;8.23;4.30;;;;;;;;;;5074649;28;20209;-80
2021/12/24 15:54:41;;;;;;;7.97;4.70;;;;;;;;;;5091329;28;20179;-80
2021/12/24 15:57:08;;;;;;;8.17;4.47;;;;;;;;;;5074425;28;20199;-80
2021/12/24 15:59:35;;;;;;;7.83;4.20;;;;;;;;;;5074388;28;20183;-80
2021/12/24 16:02:02;;;;;;;8.90;5.03;;;;;;;;;;5074641;28;20179;-80
2021/12/24 16:04:28;;;;;;;7.90;5.00;;;;;;;;;;5090972;28;20178;-79
2021/12/24 16:06:54;;;;;;;8.53;5.60;;;;;;;;;;5074278;28;20687;-81
2021/12/24 16:09:21;;;;;;;9.80;5.60;;;;;;;;;;5090972;28;20227;-77
2021/12/24 16:11:48;;;;;;;9.83;6.33;;;;;;;;;;5090691;28;20242;-78
2021/12/24 16:14:14;;;;;;;7.63;5.23;;;;;;;;;;5090623;28;20680;-77
2021/12/24 16:16:44;;;;;;;11.13;5.80;;;;;;;;;;5090600;28;20195;-78
2021/12/24 16:19:11;;;;;;;9.93;6.07;;;;;;;;;;5074696;28;20183;-77
2021/12/24 16:21:37;;;;;;;10.27;5.83;;;;;;;;;;5073920;28;20192;-78
2021/12/24 16:24:04;;;;;;;10.87;6.27;;;;;;;;;;5074356;28;20187;-78
2021/12/24 16:26:30;;;;;;;10.53;6.67;;;;;;;;;;5090541;28;20233;-77
2021/12/24 16:28:56;;;;;;;8.67;6.53;;;;;;;;;;5074164;28;20178;-77
2021/12/24 16:31:22;;;;;;;8.73;6.27;;;;;;;;;;5090588;28;20177;-77
2021/12/24 16:33:48;;;;;;;11.13;7.23;;;;;;;;;;5073919;28;20195;-77
2021/12/24 16:36:14;;;;;;;11.00;6.83;;;;;;;;;;5073795;28;20686;-77
2021/12/24 16:38:40;;;;;;;11.80;7.88;;;;;;;;;;5090013;28;20448;-77
2021/12/24 16:41:06;;;;;;;11.97;7.27;;;;;;;;;;5093005;28;20219;-77
2021/12/24 16:43:32;;;;;;;8.70;6.77;;;;;;;;;;5094532;28;20626;-77
2021/12/24 16:45:59;;;;;;;10.53;7.40;;;;;;;;;;5094307;28;20703;-77
2021/12/24 16:48:25;;;;;;;10.03;6.90;;;;;;;;;;5094356;28;20180;-76
2021/12/24 16:50:51;;;;;;;13.33;6.73;;;;;;;;;;5077186;28;20202;-76
2021/12/24 16:53:17;;;;;;;10.40;6.87;;;;;;;;;;5077334;28;20266;-76
2021/12/24 16:55:44;;;;;;;10.03;6.63;;;;;;;;;;5094383;28;20202;-76
2021/12/24 16:58:10;;;;;;;11.27;7.23;;;;;;;;;;5093973;28;20185;-77
2021/12/24 17:00:39;;;;;;;9.73;7.30;;;;;;;;;;5076906;28;20205;-76
2021/12/24 17:03:05;;;;;;;12.63;7.13;;;;;;;;;;5077192;28;20185;-76
2021/12/24 17:05:31;;;;;;;9.10;6.77;;;;;;;;;;5093743;28;20247;-76
2021/12/24 17:07:57;;;;;;;10.33;6.77;;;;;;;;;;5093796;28;20174;-76
2021/12/24 17:10:24;;;;;;;9.23;6.63;;;;;;;;;;5093873;28;20174;-77
2021/12/24 17:12:50;;;;;;;10.60;6.87;;;;;;;;;;5093618;28;20186;-76